createdAt,value
2019-04-05T00:02:05.363Z,96790.05
2019-04-05T00:04:34.700Z,96787.97
2019-04-05T00:07:04.042Z,96781.86
2019-04-05T00:09:33.416Z,96779.38
2019-04-05T00:12:02.752Z,96787.67
2019-04-05T00:14:32.096Z,96775.22
2019-04-05T00:17:01.447Z,96773.38
2019-04-05T00:19:30.797Z,96765.72
2019-04-05T00:22:00.140Z,96765.64
2019-04-05T00:24:29.491Z,96759.13
2019-04-05T00:29:38.559Z,96764.53
2019-04-05T00:32:26.992Z,96753.55
2019-04-05T00:34:56.347Z,96749.05
2019-04-05T00:37:25.679Z,96752.52
2019-04-05T00:39:55.013Z,96751.22
2019-04-05T00:42:24.355Z,96749.94
2019-04-05T00:45:13.192Z,96754.69
2019-04-05T00:47:42.548Z,96754.69
2019-04-05T00:50:12.026Z,96761.09
2019-04-05T00:52:41.369Z,96762.47
2019-04-05T00:55:10.848Z,96740.25
2019-04-05T00:57:40.176Z,96754.66
2019-04-05T01:00:49.426Z,96751.20
2019-04-05T01:03:18.757Z,96748.89
2019-04-05T01:05:48.432Z,96751.64
2019-04-05T01:08:17.846Z,96750.41
2019-04-05T01:10:47.201Z,96745.94
2019-04-05T01:16:18.825Z,96750.52
2019-04-05T01:18:48.162Z,96755.64
2019-04-05T01:30:23.475Z,96748.02
2019-04-05T01:32:52.817Z,96755.56
2019-04-05T01:35:22.162Z,96750.66
2019-04-05T01:38:31.408Z,96752.11
2019-04-05T01:41:06.712Z,96761.60
2019-04-05T01:43:36.069Z,96759.29
2019-04-05T01:46:05.647Z,96766.84
2019-04-05T01:48:34.993Z,96766.98
2019-04-05T01:54:06.181Z,96773.12
2019-04-05T01:56:35.596Z,96778.12
2019-04-05T01:59:04.936Z,96781.23
2019-04-05T02:01:34.353Z,96785.02
2019-04-05T02:04:03.690Z,96788.80
2019-04-05T02:07:12.940Z,96793.62
2019-04-05T02:09:42.347Z,96795.78
2019-04-05T02:12:11.767Z,96787.66
2019-04-05T02:14:41.113Z,96789.90
2019-04-05T02:17:10.526Z,96791.05
2019-04-05T02:19:39.864Z,96795.94
2019-04-05T02:22:09.451Z,96793.30
2019-04-05T02:24:38.787Z,96791.44
2019-04-05T02:27:08.545Z,96788.80
2019-04-05T02:29:37.873Z,96793.05
2019-04-05T02:32:07.279Z,96789.11
2019-04-05T02:34:36.621Z,96787.34
2019-04-05T02:37:45.884Z,96787.67
2019-04-05T02:49:50.942Z,96785.72
2019-04-05T03:02:08.748Z,96786.05
2019-04-05T03:04:49.619Z,96795.78
2019-04-05T03:11:10.182Z,96799.97
2019-04-05T03:17:25.401Z,96795.84
2019-04-05T03:22:57.137Z,96790.31
2019-04-05T03:25:26.604Z,96793.92
2019-04-05T03:27:55.948Z,96793.76
2019-04-05T03:39:50.287Z,96791.67
2019-04-05T03:42:59.545Z,96787.73
2019-04-05T03:45:28.874Z,96782.98
2019-04-05T03:51:04.995Z,96779.92
2019-04-05T03:53:34.346Z,96780.23
2019-04-05T03:56:03.821Z,96788.38
2019-04-05T03:58:33.293Z,96786.47
2019-04-05T04:01:02.770Z,96782.77
2019-04-05T04:03:43.009Z,96780.50
2019-04-05T04:06:12.413Z,96784.29
2019-04-05T04:08:41.768Z,96787.73
2019-04-05T04:23:49.643Z,96795.80
2019-04-05T04:29:20.550Z,96788.55
2019-04-05T04:34:51.708Z,96793.22
2019-04-05T04:37:32.687Z,96802.45
2019-04-05T04:40:02.112Z,96789.68
2019-04-05T04:42:42.575Z,96783.23
2019-04-05T04:45:32.323Z,96789.98
2019-04-05T04:51:27.820Z,96800.69
2019-04-05T04:53:57.281Z,96810.11
2019-04-05T04:57:06.537Z,96815.95
2019-04-05T05:02:50.047Z,96817.67
2019-04-05T05:05:31.495Z,96820.95
2019-04-05T05:08:00.973Z,96819.73
2019-04-05T05:13:44.583Z,96818.55
2019-04-05T05:19:16.514Z,96825.31
2019-04-05T05:27:50.450Z,96818.69
2019-04-05T05:30:19.919Z,96817.00
2019-04-05T05:32:49.404Z,96813.25
2019-04-05T05:41:21.274Z,96821.55
2019-04-05T05:43:50.673Z,96813.45
2019-04-05T05:46:20.015Z,96822.20
2019-04-05T05:48:55.188Z,96819.14
2019-04-05T05:51:35.664Z,96820.41
2019-04-05T05:57:39.291Z,96822.72
2019-04-05T06:03:11.901Z,96815.80
2019-04-05T06:05:47.403Z,96818.53
2019-04-05T06:08:16.744Z,96816.86
2019-04-05T06:10:46.085Z,96818.14
2019-04-05T06:13:15.437Z,96813.16
2019-04-05T06:15:44.789Z,96808.66
2019-04-05T06:18:14.116Z,96805.62
2019-04-05T06:20:43.481Z,96806.61
2019-04-05T06:23:12.828Z,96799.55
2019-04-05T06:25:42.155Z,96800.36
2019-04-05T06:28:11.497Z,96796.28
2019-04-05T06:30:40.830Z,96791.28
2019-04-05T06:33:10.175Z,96790.16
2019-04-05T06:35:39.768Z,96793.31
2019-04-05T06:38:29.645Z,96799.74
2019-04-05T06:40:58.976Z,96798.52
2019-04-05T06:43:28.306Z,96794.31
2019-04-05T06:45:57.739Z,96799.41
2019-04-05T06:48:29.351Z,96803.41
2019-04-05T06:51:07.349Z,96797.86
2019-04-05T06:53:36.685Z,96801.59
2019-04-05T06:56:06.088Z,96798.48
2019-04-05T06:58:35.428Z,96805.52
2019-04-05T07:01:24.095Z,96807.16
2019-04-05T07:03:55.217Z,96803.52
2019-04-05T07:06:29.895Z,96812.77
2019-04-05T07:08:59.244Z,96803.08
2019-04-05T07:11:28.572Z,96801.05
2019-04-05T07:13:57.908Z,96807.63
2019-04-05T07:16:27.249Z,96805.29
2019-04-05T07:18:56.575Z,96805.95
2019-04-05T07:21:26.232Z,96808.33
2019-04-05T07:23:55.566Z,96812.61
2019-04-05T07:26:24.896Z,96809.63
2019-04-05T07:28:54.237Z,96810.35
2019-04-05T07:31:23.574Z,96809.89
2019-04-05T07:33:52.934Z,96806.86
2019-04-05T07:36:22.244Z,96807.30
2019-04-05T07:38:53.221Z,96807.22
2019-04-05T07:41:22.594Z,96803.75
2019-04-05T07:43:51.883Z,96799.34
2019-04-05T07:46:21.152Z,96793.94
2019-04-05T07:48:50.483Z,96804.97
2019-04-05T07:51:22.578Z,96787.30
2019-04-05T07:53:56.477Z,96800.50
2019-04-05T07:56:25.925Z,96798.43
2019-04-05T07:58:55.262Z,96797.72
2019-04-05T08:01:24.592Z,96804.51
2019-04-05T08:07:14.868Z,96812.96
2019-04-05T08:09:44.279Z,96821.41
2019-04-05T08:12:13.679Z,96816.06
2019-04-05T08:14:43.086Z,96814.45
2019-04-05T08:17:12.428Z,96823.34
2019-04-05T08:19:41.759Z,96820.88
2019-04-05T08:22:11.100Z,96831.28
2019-04-05T08:24:40.359Z,96831.61
2019-04-05T08:27:09.692Z,96830.25
2019-04-05T08:29:39.032Z,96840.13
2019-04-05T08:32:14.276Z,96846.94
2019-04-05T08:34:44.852Z,96842.79
2019-04-05T08:37:14.115Z,96826.38
2019-04-05T08:39:43.448Z,96851.05
2019-04-05T08:42:12.785Z,96846.49
2019-04-05T08:45:01.211Z,96844.02
2019-04-05T08:47:30.557Z,96836.73
2019-04-05T08:49:59.890Z,96844.95
2019-04-05T08:52:29.224Z,96841.73
2019-04-05T08:54:58.560Z,96841.60
2019-04-05T08:57:27.887Z,96847.34
2019-04-05T08:59:57.227Z,96839.93
2019-04-05T09:02:26.567Z,96844.15
2019-04-05T09:04:55.909Z,96841.30
2019-04-05T09:07:25.241Z,96842.76
2019-04-05T09:09:54.720Z,96836.80
2019-04-05T09:12:24.060Z,96826.20
2019-04-05T09:14:53.455Z,96826.33
2019-04-05T09:17:22.796Z,96822.72
2019-04-05T09:19:54.204Z,96818.13
2019-04-05T09:22:30.552Z,96820.88
2019-04-05T09:24:59.894Z,96811.36
2019-04-05T09:27:29.222Z,96803.29
2019-04-05T09:29:58.552Z,96809.45
2019-04-05T09:32:28.146Z,96797.66
2019-04-05T09:34:57.481Z,96792.39
2019-04-05T09:37:26.817Z,96791.52
2019-04-05T09:39:56.143Z,96788.49
2019-04-05T09:42:25.475Z,96791.33
2019-04-05T09:45:13.900Z,96785.27
2019-04-05T09:47:43.251Z,96779.17
2019-04-05T09:50:52.731Z,96782.63
2019-04-05T09:53:22.062Z,96776.90
2019-04-05T09:55:51.654Z,96770.19
2019-04-05T09:58:26.458Z,96770.27
2019-04-05T10:00:55.882Z,96759.17
2019-04-05T10:03:25.152Z,96755.45
2019-04-05T10:05:54.479Z,96756.63
2019-04-05T10:08:23.813Z,96757.75
2019-04-05T10:10:53.207Z,96758.45
2019-04-05T10:13:22.532Z,96755.36
2019-04-05T10:15:51.869Z,96755.87
2019-04-05T10:18:21.499Z,96761.91
2019-04-05T10:20:50.842Z,96766.02
2019-04-05T10:23:20.173Z,96752.80
2019-04-05T10:25:49.505Z,96753.83
2019-04-05T10:28:18.835Z,96750.66
2019-04-05T10:30:48.163Z,96736.28
2019-04-05T10:33:17.493Z,96740.88
2019-04-05T10:35:46.826Z,96739.91
2019-04-05T10:38:16.152Z,96739.25
2019-04-05T10:40:45.488Z,96736.12
2019-04-05T10:43:14.818Z,96738.22
2019-04-05T10:45:44.157Z,96738.33
2019-04-05T10:48:13.491Z,96736.46
2019-04-05T10:51:02.178Z,96739.91
2019-04-05T10:53:31.546Z,96738.19
2019-04-05T10:56:00.879Z,96735.83
2019-04-05T10:58:36.133Z,96741.80
2019-04-05T11:01:11.423Z,96735.61
2019-04-05T11:03:40.756Z,96729.97
2019-04-05T11:06:10.339Z,96726.44
2019-04-05T11:08:39.669Z,96724.41
2019-04-05T11:11:09.061Z,96730.84
2019-04-05T11:13:38.343Z,96708.37
2019-04-05T11:16:07.676Z,96713.59
2019-04-05T11:18:37.010Z,96710.30
2019-04-05T11:21:06.366Z,96714.69
2019-04-05T11:23:35.678Z,96722.38
2019-04-05T11:26:05.020Z,96722.27
2019-04-05T11:28:34.352Z,96725.97
2019-04-05T11:31:03.752Z,96731.42
2019-04-05T11:33:33.230Z,96733.02
2019-04-05T11:36:02.633Z,96718.36
2019-04-05T11:38:32.116Z,96728.72
2019-04-05T11:41:01.613Z,96723.42
2019-04-05T11:44:10.855Z,96732.11
2019-04-05T11:53:02.698Z,96734.04
2019-04-05T11:55:32.027Z,96736.38
2019-04-05T11:58:01.379Z,96728.22
2019-04-05T12:00:55.717Z,96729.14
2019-04-05T12:06:20.522Z,96721.54
2019-04-05T12:08:49.875Z,96723.34
2019-04-05T12:11:19.204Z,96725.77
2019-04-05T12:13:48.537Z,96717.96
2019-04-05T12:16:17.875Z,96717.67
2019-04-05T12:18:47.210Z,96713.53
2019-04-05T12:21:16.554Z,96709.45
2019-04-05T12:23:45.892Z,96714.53
2019-04-05T12:26:15.217Z,96709.53
2019-04-05T12:28:44.557Z,96717.47
2019-04-05T12:31:13.957Z,96712.40
2019-04-05T12:33:46.633Z,96712.08
2019-04-05T12:36:22.012Z,96707.11
2019-04-05T12:39:01.565Z,96709.47
2019-04-05T12:41:42.524Z,96705.52
2019-04-05T12:44:21.553Z,96702.70
2019-04-05T12:46:50.885Z,96695.96
2019-04-05T12:49:20.222Z,96693.30
2019-04-05T12:51:49.556Z,96697.43
2019-04-05T12:54:18.881Z,96691.44
2019-04-05T12:56:48.222Z,96692.41
2019-04-05T12:59:17.558Z,96681.17
2019-04-05T13:02:06.193Z,96681.73
2019-04-05T13:04:35.500Z,96681.64
2019-04-05T13:07:04.827Z,96677.40
2019-04-05T13:09:55.051Z,96673.89
2019-04-05T13:12:29.971Z,96675.69
2019-04-05T13:18:33.319Z,96669.53
2019-04-05T13:21:14.461Z,96670.90
2019-04-05T13:23:52.782Z,96670.27
2019-04-05T13:26:22.119Z,96668.25
2019-04-05T13:28:51.447Z,96669.66
2019-04-05T13:31:20.780Z,96673.88
2019-04-05T13:33:54.362Z,96680.81
2019-04-05T13:36:27.007Z,96672.92
2019-04-05T13:38:59.603Z,96674.34
2019-04-05T13:42:26.377Z,96671.84
2019-04-05T13:44:55.714Z,96675.82
2019-04-05T13:47:24.971Z,96674.81
2019-04-05T13:49:56.663Z,96669.45
2019-04-05T13:52:26.015Z,96666.70
2019-04-05T13:54:55.353Z,96669.87
2019-04-05T13:57:24.697Z,96671.73
2019-04-05T13:59:54.039Z,96667.66
2019-04-05T14:02:23.382Z,96664.55
2019-04-05T14:04:53.870Z,96668.06
2019-04-05T14:07:28.924Z,96665.81
2019-04-05T14:09:58.270Z,96659.78
2019-04-05T14:12:27.863Z,96658.48
2019-04-05T14:14:57.194Z,96659.44
2019-04-05T14:17:26.523Z,96660.78
2019-04-05T14:19:57.507Z,96657.31
2019-04-05T14:22:26.834Z,96656.11
2019-04-05T14:24:56.768Z,96657.77
2019-04-05T14:27:35.077Z,96658.94
2019-04-05T14:33:11.437Z,96663.19
2019-04-05T14:35:42.426Z,96655.22
2019-04-05T14:38:11.975Z,96646.20
2019-04-05T14:41:01.888Z,96646.87
2019-04-05T14:43:31.234Z,96637.02
2019-04-05T14:46:02.760Z,96640.69
2019-04-05T14:48:37.162Z,96631.64
2019-04-05T14:51:06.495Z,96633.39
2019-04-05T14:53:35.906Z,96638.02
2019-04-05T14:56:05.247Z,96635.05
2019-04-05T14:58:53.799Z,96644.52
2019-04-05T15:01:23.372Z,96643.64
2019-04-05T15:03:53.309Z,96646.59
2019-04-05T15:06:26.530Z,96647.94
2019-04-05T15:12:09.815Z,96644.92
2019-04-05T15:14:39.143Z,96642.27
2019-04-05T15:17:10.115Z,96645.19
2019-04-05T15:19:39.439Z,96642.19
2019-04-05T15:22:11.748Z,96647.61
2019-04-05T15:24:59.026Z,96648.77
2019-04-05T15:27:28.368Z,96650.59
2019-04-05T15:29:57.690Z,96648.78
2019-04-05T15:35:46.702Z,96639.81
2019-04-05T15:38:16.032Z,96641.65
2019-04-05T15:40:47.007Z,96647.75
2019-04-05T15:43:16.335Z,96642.47
2019-04-05T15:45:45.659Z,96647.09
2019-04-05T15:48:15.186Z,96643.47
2019-04-05T15:50:44.536Z,96648.98
2019-04-05T15:53:13.883Z,96647.87
2019-04-05T15:55:43.199Z,96648.92
2019-04-05T15:58:12.524Z,96654.74
2019-04-05T16:01:21.769Z,96657.07
2019-04-05T16:03:51.099Z,96656.72
2019-04-05T16:06:20.437Z,96657.28
2019-04-05T16:08:49.764Z,96662.21
2019-04-05T16:11:19.092Z,96658.09
2019-04-05T16:13:48.434Z,96660.25
2019-04-05T16:16:17.859Z,96659.22
2019-04-05T16:18:47.259Z,96665.03
2019-04-05T16:21:16.583Z,96670.36
2019-04-05T16:23:45.962Z,96665.42
2019-04-05T16:26:15.296Z,96670.58
2019-04-05T16:28:44.561Z,96676.53
2019-04-05T16:31:13.899Z,96657.75
2019-04-05T16:33:43.228Z,96674.45
2019-04-05T16:36:12.564Z,96677.48
2019-04-05T16:38:41.904Z,96676.53
2019-04-05T16:41:11.662Z,96675.62
2019-04-05T16:43:41.291Z,96674.14
2019-04-05T16:46:10.624Z,96675.52
2019-04-05T16:48:40.081Z,96671.28
2019-04-05T16:51:09.951Z,96670.69
2019-04-05T16:56:20.488Z,96667.51
2019-04-05T16:58:49.975Z,96659.16
2019-04-05T17:01:27.008Z,96665.10
2019-04-05T17:04:09.834Z,96661.80
2019-04-05T17:06:44.954Z,96667.75
2019-04-05T17:09:14.525Z,96674.62
2019-04-05T17:11:43.971Z,96669.45
2019-04-05T17:14:13.348Z,96675.53
2019-04-05T17:16:42.727Z,96676.56
2019-04-05T17:19:12.078Z,96681.48
2019-04-05T17:21:41.443Z,96682.99
2019-04-05T17:24:10.841Z,96688.00
2019-04-05T17:26:40.490Z,96686.63
2019-04-05T17:29:09.847Z,96687.06
2019-04-05T17:31:39.280Z,96687.76
2019-04-05T17:34:08.604Z,96687.31
2019-04-05T17:36:38.211Z,96694.08
2019-04-05T17:42:30.965Z,96704.23
2019-04-05T17:45:01.092Z,96703.45
2019-04-05T17:47:30.426Z,96706.21
2019-04-05T17:49:59.813Z,96708.37
2019-04-05T17:52:29.212Z,96711.72
2019-04-05T17:54:58.598Z,96713.86
2019-04-05T17:57:28.001Z,96710.89
2019-04-05T17:59:57.952Z,96704.36
2019-04-05T18:05:23.299Z,96706.09
2019-04-05T18:07:52.953Z,96707.92
2019-04-05T18:10:22.845Z,96717.09
2019-04-05T18:13:11.624Z,96713.42
2019-04-05T18:15:51.860Z,96717.56
2019-04-05T18:18:31.397Z,96713.66
2019-04-05T18:21:00.857Z,96713.53
2019-04-05T18:23:30.372Z,96721.67
2019-04-05T18:25:59.879Z,96721.09
2019-04-05T18:28:48.467Z,96714.56
2019-04-05T18:31:17.964Z,96717.31
2019-04-05T18:33:47.507Z,96716.72
2019-04-05T18:36:17.346Z,96716.39
2019-04-05T18:38:46.903Z,96711.59
2019-04-05T18:41:16.460Z,96715.46
2019-04-05T18:43:46.329Z,96720.27
2019-04-05T18:46:16.065Z,96720.28
2019-04-05T18:48:45.640Z,96718.33
2019-04-05T18:51:15.206Z,96716.19
2019-04-05T18:53:44.775Z,96719.27
2019-04-05T18:56:15.373Z,96714.80
2019-04-05T18:58:44.941Z,96722.46
2019-04-05T19:01:14.520Z,96726.83
2019-04-05T19:03:44.092Z,96720.98
2019-04-05T19:06:13.681Z,96720.89
2019-04-05T19:08:43.263Z,96721.20
2019-04-05T19:11:13.852Z,96729.10
2019-04-05T19:13:43.431Z,96724.07
2019-04-05T19:16:13.029Z,96731.62
2019-04-05T19:18:42.618Z,96730.70
2019-04-05T19:21:12.222Z,96726.55
2019-04-05T19:23:50.663Z,96741.79
2019-04-05T19:26:13.042Z,96743.97
2019-04-05T19:28:42.643Z,96748.11
2019-04-05T19:48:53.952Z,96744.77
2019-04-05T19:51:23.575Z,96746.39
2019-04-05T19:54:01.263Z,96745.69
2019-04-05T19:56:27.823Z,96744.78
2019-04-05T19:58:57.438Z,96742.72
2019-04-05T20:01:27.006Z,96742.94
2019-04-05T20:03:56.961Z,96741.79
2019-04-05T20:06:26.538Z,96742.25
2019-04-05T20:08:56.116Z,96740.42
2019-04-05T20:11:25.695Z,96732.08
2019-04-05T20:14:05.322Z,96727.61
2019-04-05T20:16:37.744Z,96733.80
2019-04-05T20:19:08.445Z,96731.16
2019-04-05T20:21:44.517Z,96731.48
2019-04-05T20:24:26.208Z,96708.81
2019-04-05T20:27:12.160Z,96730.92
2019-04-05T20:29:50.005Z,96739.08
2019-04-05T20:32:21.402Z,96739.97
2019-04-05T20:35:04.417Z,96740.19
2019-04-05T20:37:34.818Z,96745.37
2019-04-05T20:40:08.382Z,96749.72
2019-04-05T20:42:42.316Z,96748.11
2019-04-05T20:48:17.291Z,96744.78
2019-04-05T20:50:50.315Z,96745.47
2019-04-05T20:56:13.427Z,96744.77
2019-04-05T20:59:02.596Z,96739.73
2019-04-05T21:01:32.109Z,96742.94
2019-04-05T21:04:01.581Z,96741.58
2019-04-05T21:06:30.978Z,96742.35
2019-04-05T21:09:00.784Z,96742.46
2019-04-05T21:11:30.154Z,96741.75
2019-04-05T21:13:59.525Z,96743.05
2019-04-05T21:16:28.868Z,96735.88
2019-04-05T21:18:58.236Z,96738.34
2019-04-05T21:21:27.592Z,96740.83
2019-04-05T21:23:56.936Z,96744.78
2019-04-05T21:26:26.286Z,96742.55
2019-04-05T21:28:55.617Z,96744.26
2019-04-05T21:31:24.953Z,96750.22
2019-04-05T21:33:54.222Z,96752.81
2019-04-05T21:36:23.554Z,96752.05
2019-04-05T21:38:53.878Z,96755.16
2019-04-05T21:41:23.139Z,96756.34
2019-04-05T21:43:52.476Z,96751.73
2019-04-05T21:46:21.817Z,96755.66
2019-04-05T21:48:51.152Z,96765.08
2019-04-05T21:51:20.496Z,96760.41
2019-04-05T21:53:50.056Z,96763.98
2019-04-05T21:56:19.402Z,96764.47
2019-04-05T21:58:48.745Z,96756.16
2019-04-05T22:01:19.085Z,96761.92
2019-04-05T22:03:48.448Z,96760.27
2019-04-05T22:06:17.767Z,96759.05
2019-04-05T22:08:47.093Z,96763.90
2019-04-05T22:11:17.573Z,96761.58
2019-04-05T22:13:46.911Z,96766.17
2019-04-05T22:16:16.258Z,96765.14
2019-04-05T22:18:45.590Z,96769.77
2019-04-05T22:21:14.928Z,96765.59
2019-04-05T22:23:44.203Z,96771.27
2019-04-05T22:26:13.538Z,96774.41
2019-04-05T22:28:43.994Z,96778.45
2019-04-05T22:31:13.326Z,96775.26
2019-04-05T22:33:42.662Z,96771.64
2019-04-05T22:36:12.026Z,96777.11
2019-04-05T22:38:41.362Z,96767.94
2019-04-05T22:41:10.698Z,96774.45
2019-04-05T22:43:40.042Z,96780.98
2019-04-05T22:46:09.382Z,96781.77
2019-04-05T22:48:38.719Z,96781.36
2019-04-05T22:51:08.066Z,96787.42
2019-04-05T22:53:37.815Z,96790.34
2019-04-05T22:56:07.156Z,96797.02
2019-04-05T22:58:37.414Z,96792.77
2019-04-05T23:01:06.746Z,96795.64
2019-04-05T23:03:36.104Z,96792.19
2019-04-05T23:06:05.435Z,96788.16
2019-04-05T23:08:34.774Z,96789.52
2019-04-05T23:11:04.121Z,96792.81
2019-04-05T23:13:33.666Z,96789.27
2019-04-05T23:16:03.058Z,96793.47
2019-04-05T23:18:32.350Z,96795.45
2019-04-05T23:21:02.675Z,96798.68
2019-04-05T23:23:32.035Z,96798.03
2019-04-05T23:26:01.354Z,96795.47
2019-04-05T23:28:31.688Z,96799.97
2019-04-05T23:31:01.289Z,96801.42
2019-04-05T23:33:30.630Z,96802.87
2019-04-05T23:35:59.976Z,96804.80
2019-04-05T23:38:29.308Z,96804.80
2019-04-05T23:40:58.647Z,96807.82
2019-04-05T23:43:27.992Z,96810.00
2019-04-05T23:45:57.347Z,96805.25
2019-04-05T23:48:26.698Z,96805.97
2019-04-05T23:50:56.014Z,96805.25
2019-04-05T23:53:25.345Z,96806.94
2019-04-05T23:55:55.527Z,96803.72
2019-04-05T23:58:24.921Z,96799.20
